Tuesday, November 21, 2017, 10:51 AM EST
Back to Local

KFIG, Clearfield-lawrence Airport

Location: Clearfield, PA, United States Lat: 41.05
Local Time: 10:51 AM EST (15:51 GMT) Lon: -78.417
Time Zone: US/Eastern Elev: 1515 ft

Show me the last for .
Show Coded

Time T Td Feel RH Dir Speed Gust Alt SLP Vis Weather Sky Remarks
2017-11-21 09:54 39 27 37 61 Variable 3 - 29.97 30.01 10 CLR None
2017-11-21 08:54 31 27 - 85 - Calm - 29.98 30.03 10 CLR None
2017-11-21 07:54 25 22 - 87 - Calm - 29.99 30.03 10 CLR None
2017-11-21 06:54 24 21 - 87 - Calm - 29.98 30.03 10 CLR 6-hr Min Temp (7am): 24.1°F
6-hr Max Temp (7am): 32.0°F
2017-11-21 05:54 25 22 - 87 - Calm - 29.98 30.03 10 CLR None
2017-11-21 04:54 24 23 20 95 10° 3 - 29.98 30.02 10 CLR None
2017-11-21 03:54 26 22 19 84 340° 6 - 29.99 30.03 10 CLR None
2017-11-21 02:54 26 23 21 87 350° 5 - 30.00 30.04 10 CLR None
2017-11-21 01:54 27 24 - 88 - Calm - 30.01 30.05 10 CLR None
2017-11-21 00:54 31 24 25 75 210° 6 - 30.02 30.06 10 CLR 6-hr Min Temp (1am): 30.0°F
6-hr Max Temp (1am): 36.0°F
2017-11-20 23:54 31 24 25 75 210° 6 - 30.03 30.07 10 CLR 24-hr Min Temp (12am): 28.9°F
24-hr Max Temp (12am): 42.1°F
2017-11-20 22:54 30 25 25 81 200° 5 - 30.04 30.09 10 CLR None
2017-11-20 21:54 32 25 26 74 220° 6 - 30.05 30.10 10 CLR None
2017-11-20 20:54 33 24 28 69 210° 6 - 30.06 30.11 10 CLR None
2017-11-20 19:54 34 25 29 69 210° 6 - 30.06 30.11 10 CLR None
2017-11-20 18:54 36 24 30 61 210° 7 - 30.06 30.10 10 CLR 6-hr Min Temp (7pm): 36.0°F
6-hr Max Temp (7pm): 42.1°F
2017-11-20 17:54 37 24 32 59 210° 7 - 30.06 30.10 10 CLR None
2017-11-20 16:54 38 24 32 56 200° 8 - 30.05 30.09 10 CLR None
2017-11-20 15:54 41 23 32 48 210° 10 17 30.05 30.09 10 CLR None
2017-11-20 14:54 41 23 35 48 230° 9 - 30.03 30.07 10 CLR None
2017-11-20 13:54 41 24 32 50 240° 14 20 30.04 30.07 10 CLR None
2017-11-20 12:54 39 24 29 54 240° 14 21 30.04 30.08 10 CLR 6-hr Min Temp (1pm): 28.9°F
6-hr Max Temp (1pm): 39.0°F
2017-11-20 11:54 36 24 25 61 240° 13 21 30.05 30.09 10 FEW070 None
2017-11-20 11:11 34 23 22 63 230° 14 21 30.07 - 10 SCT026 None
2017-11-20 10:54 34 24 22 66 250° 10 21 30.08 30.12 10 BKN025 None

Support USWX by starting your Amazon purchase here.